sensor_id;sensor_type;location;lat;lon;timestamp;P1;durP1;ratioP1;P2;durP2;ratioP2
1831;SDS011;1680;48.106;11.708;2023-03-01T00:01:38;16.50;;;13.30;;
1831;SDS011;1680;48.106;11.708;2023-03-01T00:04:05;17.45;;;13.95;;
1831;SDS011;1680;48.106;11.708;2023-03-01T00:06:34;17.50;;;13.70;;
1831;SDS011;1680;48.106;11.708;2023-03-01T00:09:02;19.05;;;14.20;;
1831;SDS011;1680;48.106;11.708;2023-03-01T00:11:30;15.43;;;12.77;;
1831;SDS011;1680;48.106;11.708;2023-03-01T00:13:59;18.48;;;13.70;;
1831;SDS011;1680;48.106;11.708;2023-03-01T00:16:30;18.42;;;14.50;;
1831;SDS011;1680;48.106;11.708;2023-03-01T00:18:59;18.55;;;14.13;;
1831;SDS011;1680;48.106;11.708;2023-03-01T00:21:26;19.08;;;14.13;;
1831;SDS011;1680;48.106;11.708;2023-03-01T00:23:55;16.13;;;13.95;;
1831;SDS011;1680;48.106;11.708;2023-03-01T00:26:24;17.98;;;14.88;;
1831;SDS011;1680;48.106;11.708;2023-03-01T00:28:53;17.05;;;13.80;;
1831;SDS011;1680;48.106;11.708;2023-03-01T00:31:22;15.65;;;12.93;;
1831;SDS011;1680;48.106;11.708;2023-03-01T00:33:51;17.40;;;14.27;;
1831;SDS011;1680;48.106;11.708;2023-03-01T00:36:22;15.98;;;14.10;;
1831;SDS011;1680;48.106;11.708;2023-03-01T00:38:50;17.20;;;13.90;;
1831;SDS011;1680;48.106;11.708;2023-03-01T00:41:19;17.10;;;13.25;;
1831;SDS011;1680;48.106;11.708;2023-03-01T00:43:48;15.48;;;12.85;;
1831;SDS011;1680;48.106;11.708;2023-03-01T00:46:17;17.90;;;13.98;;
1831;SDS011;1680;48.106;11.708;2023-03-01T00:48:46;19.45;;;15.07;;
1831;SDS011;1680;48.106;11.708;2023-03-01T00:51:14;19.13;;;14.60;;
1831;SDS011;1680;48.106;11.708;2023-03-01T00:53:43;18.27;;;14.35;;
1831;SDS011;1680;48.106;11.708;2023-03-01T00:56:11;16.35;;;13.70;;
1831;SDS011;1680;48.106;11.708;2023-03-01T00:58:42;18.42;;;13.93;;
1831;SDS011;1680;48.106;11.708;2023-03-01T01:01:09;17.05;;;13.48;;
1831;SDS011;1680;48.106;11.708;2023-03-01T01:03:45;20.08;;;14.57;;
1831;SDS011;1680;48.106;11.708;2023-03-01T01:06:14;17.02;;;13.75;;
1831;SDS011;1680;48.106;11.708;2023-03-01T01:08:43;18.95;;;14.30;;
1831;SDS011;1680;48.106;11.708;2023-03-01T01:11:10;19.08;;;14.82;;
1831;SDS011;1680;48.106;11.708;2023-03-01T01:13:38;16.98;;;13.85;;
1831;SDS011;1680;48.106;11.708;2023-03-01T01:16:08;18.08;;;14.00;;
1831;SDS011;1680;48.106;11.708;2023-03-01T01:18:35;18.65;;;14.88;;
1831;SDS011;1680;48.106;11.708;2023-03-01T01:21:03;18.00;;;14.57;;
1831;SDS011;1680;48.106;11.708;2023-03-01T01:23:32;18.30;;;14.20;;
1831;SDS011;1680;48.106;11.708;2023-03-01T01:26:03;16.98;;;13.80;;
1831;SDS011;1680;48.106;11.708;2023-03-01T01:28:31;17.73;;;14.10;;
1831;SDS011;1680;48.106;11.708;2023-03-01T01:30:58;19.85;;;14.13;;
1831;SDS011;1680;48.106;11.708;2023-03-01T01:33:27;17.90;;;13.85;;
1831;SDS011;1680;48.106;11.708;2023-03-01T01:35:54;20.27;;;14.13;;
1831;SDS011;1680;48.106;11.708;2023-03-01T01:38:22;18.88;;;14.32;;
1831;SDS011;1680;48.106;11.708;2023-03-01T01:40:50;17.83;;;14.07;;
1831;SDS011;1680;48.106;11.708;2023-03-01T01:43:19;15.43;;;13.48;;
1831;SDS011;1680;48.106;11.708;2023-03-01T01:45:48;16.90;;;13.80;;
1831;SDS011;1680;48.106;11.708;2023-03-01T01:48:16;18.23;;;14.57;;
1831;SDS011;1680;48.106;11.708;2023-03-01T01:50:49;16.70;;;13.57;;
1831;SDS011;1680;48.106;11.708;2023-03-01T01:53:22;17.27;;;14.02;;
1831;SDS011;1680;48.106;11.708;2023-03-01T01:55:53;19.00;;;14.80;;
1831;SDS011;1680;48.106;11.708;2023-03-01T01:58:25;17.25;;;13.88;;
1831;SDS011;1680;48.106;11.708;2023-03-01T02:00:56;17.02;;;13.85;;
1831;SDS011;1680;48.106;11.708;2023-03-01T02:03:26;18.70;;;14.77;;
1831;SDS011;1680;48.106;11.708;2023-03-01T02:06:00;17.48;;;14.35;;
1831;SDS011;1680;48.106;11.708;2023-03-01T02:08:33;18.60;;;14.32;;
1831;SDS011;1680;48.106;11.708;2023-03-01T02:11:04;17.75;;;13.55;;
1831;SDS011;1680;48.106;11.708;2023-03-01T02:13:32;16.38;;;14.38;;
1831;SDS011;1680;48.106;11.708;2023-03-01T02:16:02;17.30;;;13.55;;
1831;SDS011;1680;48.106;11.708;2023-03-01T02:18:30;17.95;;;13.30;;
1831;SDS011;1680;48.106;11.708;2023-03-01T02:21:05;17.17;;;14.05;;
1831;SDS011;1680;48.106;11.708;2023-03-01T02:23:41;18.42;;;15.10;;
1831;SDS011;1680;48.106;11.708;2023-03-01T02:26:11;19.02;;;14.60;;
1831;SDS011;1680;48.106;11.708;2023-03-01T02:28:47;17.45;;;14.10;;
1831;SDS011;1680;48.106;11.708;2023-03-01T02:31:15;18.17;;;14.70;;
1831;SDS011;1680;48.106;11.708;2023-03-01T02:34:14;18.52;;;14.73;;
1831;SDS011;1680;48.106;11.708;2023-03-01T02:36:44;17.70;;;14.50;;
1831;SDS011;1680;48.106;11.708;2023-03-01T02:39:15;20.02;;;15.18;;
1831;SDS011;1680;48.106;11.708;2023-03-01T02:41:47;17.45;;;14.45;;
1831;SDS011;1680;48.106;11.708;2023-03-01T02:44:18;18.10;;;14.07;;
1831;SDS011;1680;48.106;11.708;2023-03-01T02:46:47;17.17;;;14.27;;
1831;SDS011;1680;48.106;11.708;2023-03-01T02:49:18;18.98;;;14.70;;
1831;SDS011;1680;48.106;11.708;2023-03-01T02:51:50;18.60;;;14.30;;
1831;SDS011;1680;48.106;11.708;2023-03-01T02:54:28;17.92;;;14.32;;
1831;SDS011;1680;48.106;11.708;2023-03-01T02:57:00;15.30;;;12.98;;
1831;SDS011;1680;48.106;11.708;2023-03-01T02:59:30;18.90;;;15.55;;
1831;SDS011;1680;48.106;11.708;2023-03-01T03:02:00;21.38;;;15.45;;
1831;SDS011;1680;48.106;11.708;2023-03-01T03:04:28;19.30;;;14.40;;
1831;SDS011;1680;48.106;11.708;2023-03-01T03:06:55;18.02;;;13.85;;
1831;SDS011;1680;48.106;11.708;2023-03-01T03:09:22;19.52;;;13.90;;
1831;SDS011;1680;48.106;11.708;2023-03-01T03:11:49;17.52;;;14.15;;
1831;SDS011;1680;48.106;11.708;2023-03-01T03:14:16;18.00;;;15.02;;
1831;SDS011;1680;48.106;11.708;2023-03-01T03:16:46;17.27;;;14.38;;
1831;SDS011;1680;48.106;11.708;2023-03-01T03:19:14;17.80;;;14.73;;
1831;SDS011;1680;48.106;11.708;2023-03-01T03:21:42;16.83;;;14.23;;
1831;SDS011;1680;48.106;11.708;2023-03-01T03:24:09;16.83;;;13.45;;
1831;SDS011;1680;48.106;11.708;2023-03-01T03:26:36;19.95;;;15.05;;
1831;SDS011;1680;48.106;11.708;2023-03-01T03:29:04;16.50;;;14.00;;
1831;SDS011;1680;48.106;11.708;2023-03-01T03:31:31;18.27;;;15.57;;
1831;SDS011;1680;48.106;11.708;2023-03-01T03:34:00;17.75;;;14.50;;
1831;SDS011;1680;48.106;11.708;2023-03-01T03:36:27;20.08;;;15.80;;
1831;SDS011;1680;48.106;11.708;2023-03-01T03:38:54;17.65;;;15.63;;
1831;SDS011;1680;48.106;11.708;2023-03-01T03:41:22;16.90;;;14.30;;
1831;SDS011;1680;48.106;11.708;2023-03-01T03:43:49;19.48;;;14.60;;
1831;SDS011;1680;48.106;11.708;2023-03-01T03:46:16;18.15;;;14.20;;
1831;SDS011;1680;48.106;11.708;2023-03-01T03:48:44;18.85;;;15.88;;
1831;SDS011;1680;48.106;11.708;2023-03-01T03:51:14;21.33;;;16.13;;
1831;SDS011;1680;48.106;11.708;2023-03-01T03:53:43;17.33;;;14.48;;
1831;SDS011;1680;48.106;11.708;2023-03-01T03:56:11;20.17;;;15.10;;
1831;SDS011;1680;48.106;11.708;2023-03-01T03:58:39;20.13;;;15.18;;
1831;SDS011;1680;48.106;11.708;2023-03-01T04:01:06;20.05;;;15.27;;
1831;SDS011;1680;48.106;11.708;2023-03-01T04:03:34;20.23;;;15.02;;
1831;SDS011;1680;48.106;11.708;2023-03-01T04:06:01;17.20;;;14.68;;
1831;SDS011;1680;48.106;11.708;2023-03-01T04:08:32;20.48;;;15.48;;
1831;SDS011;1680;48.106;11.708;2023-03-01T04:11:00;22.00;;;15.23;;
1831;SDS011;1680;48.106;11.708;2023-03-01T04:13:50;20.08;;;15.23;;
1831;SDS011;1680;48.106;11.708;2023-03-01T04:16:19;20.05;;;15.50;;
1831;SDS011;1680;48.106;11.708;2023-03-01T04:18:46;20.33;;;15.15;;
1831;SDS011;1680;48.106;11.708;2023-03-01T04:21:14;17.63;;;15.32;;
1831;SDS011;1680;48.106;11.708;2023-03-01T04:23:43;21.23;;;16.23;;
1831;SDS011;1680;48.106;11.708;2023-03-01T04:26:10;20.08;;;15.05;;
1831;SDS011;1680;48.106;11.708;2023-03-01T04:28:38;18.35;;;15.27;;
1831;SDS011;1680;48.106;11.708;2023-03-01T04:31:08;18.52;;;14.85;;
1831;SDS011;1680;48.106;11.708;2023-03-01T04:33:42;20.10;;;15.90;;
1831;SDS011;1680;48.106;11.708;2023-03-01T04:36:11;18.15;;;15.02;;
1831;SDS011;1680;48.106;11.708;2023-03-01T04:38:43;18.83;;;15.60;;
1831;SDS011;1680;48.106;11.708;2023-03-01T04:41:13;20.25;;;15.30;;
1831;SDS011;1680;48.106;11.708;2023-03-01T04:43:42;19.98;;;15.65;;
1831;SDS011;1680;48.106;11.708;2023-03-01T04:46:11;18.30;;;14.48;;
1831;SDS011;1680;48.106;11.708;2023-03-01T04:48:39;19.38;;;15.90;;
1831;SDS011;1680;48.106;11.708;2023-03-01T04:51:09;20.33;;;14.90;;
1831;SDS011;1680;48.106;11.708;2023-03-01T04:53:38;20.38;;;15.63;;
1831;SDS011;1680;48.106;11.708;2023-03-01T04:56:08;22.80;;;16.40;;
1831;SDS011;1680;48.106;11.708;2023-03-01T04:58:35;19.02;;;15.25;;
1831;SDS011;1680;48.106;11.708;2023-03-01T05:01:07;19.60;;;15.77;;
1831;SDS011;1680;48.106;11.708;2023-03-01T05:03:41;19.75;;;15.20;;
1831;SDS011;1680;48.106;11.708;2023-03-01T05:06:09;20.20;;;15.15;;
1831;SDS011;1680;48.106;11.708;2023-03-01T05:08:37;17.83;;;15.25;;
1831;SDS011;1680;48.106;11.708;2023-03-01T05:11:04;19.27;;;15.52;;
1831;SDS011;1680;48.106;11.708;2023-03-01T05:13:35;18.85;;;15.52;;
1831;SDS011;1680;48.106;11.708;2023-03-01T05:16:03;19.83;;;15.48;;
1831;SDS011;1680;48.106;11.708;2023-03-01T05:18:36;18.20;;;15.88;;
1831;SDS011;1680;48.106;11.708;2023-03-01T05:21:05;18.95;;;15.90;;
1831;SDS011;1680;48.106;11.708;2023-03-01T05:23:33;19.85;;;16.13;;
1831;SDS011;1680;48.106;11.708;2023-03-01T05:26:02;19.00;;;16.08;;
1831;SDS011;1680;48.106;11.708;2023-03-01T05:28:31;21.95;;;15.75;;
1831;SDS011;1680;48.106;11.708;2023-03-01T05:31:00;19.35;;;15.18;;
1831;SDS011;1680;48.106;11.708;2023-03-01T05:33:28;22.52;;;16.20;;
1831;SDS011;1680;48.106;11.708;2023-03-01T05:35:59;20.95;;;15.63;;
1831;SDS011;1680;48.106;11.708;2023-03-01T05:38:27;19.13;;;15.50;;
1831;SDS011;1680;48.106;11.708;2023-03-01T05:40:54;19.27;;;15.25;;
1831;SDS011;1680;48.106;11.708;2023-03-01T05:43:21;21.42;;;16.35;;
1831;SDS011;1680;48.106;11.708;2023-03-01T05:45:48;20.58;;;16.08;;
1831;SDS011;1680;48.106;11.708;2023-03-01T05:48:17;21.17;;;15.30;;
1831;SDS011;1680;48.106;11.708;2023-03-01T05:50:45;19.70;;;15.88;;
1831;SDS011;1680;48.106;11.708;2023-03-01T05:53:15;20.33;;;15.15;;
1831;SDS011;1680;48.106;11.708;2023-03-01T05:55:44;19.85;;;15.55;;
1831;SDS011;1680;48.106;11.708;2023-03-01T05:58:13;20.58;;;15.73;;
1831;SDS011;1680;48.106;11.708;2023-03-01T06:00:41;19.20;;;15.45;;
1831;SDS011;1680;48.106;11.708;2023-03-01T06:03:09;20.13;;;15.25;;
1831;SDS011;1680;48.106;11.708;2023-03-01T06:05:39;19.17;;;14.55;;
1831;SDS011;1680;48.106;11.708;2023-03-01T06:08:07;20.67;;;16.13;;
1831;SDS011;1680;48.106;11.708;2023-03-01T06:10:36;19.73;;;15.65;;
1831;SDS011;1680;48.106;11.708;2023-03-01T06:13:04;20.20;;;15.52;;
1831;SDS011;1680;48.106;11.708;2023-03-01T06:15:31;18.60;;;15.35;;
1831;SDS011;1680;48.106;11.708;2023-03-01T06:17:58;18.50;;;14.95;;
1831;SDS011;1680;48.106;11.708;2023-03-01T06:20:27;21.85;;;16.77;;
1831;SDS011;1680;48.106;11.708;2023-03-01T06:22:56;20.02;;;15.45;;
1831;SDS011;1680;48.106;11.708;2023-03-01T06:25:25;18.77;;;15.60;;
1831;SDS011;1680;48.106;11.708;2023-03-01T06:27:53;21.25;;;16.25;;
1831;SDS011;1680;48.106;11.708;2023-03-01T06:30:21;22.23;;;16.63;;
1831;SDS011;1680;48.106;11.708;2023-03-01T06:32:49;18.50;;;15.90;;
1831;SDS011;1680;48.106;11.708;2023-03-01T06:35:17;20.15;;;16.00;;
1831;SDS011;1680;48.106;11.708;2023-03-01T06:37:45;20.60;;;15.43;;
1831;SDS011;1680;48.106;11.708;2023-03-01T06:40:14;21.83;;;17.02;;
1831;SDS011;1680;48.106;11.708;2023-03-01T06:42:42;22.35;;;17.23;;
1831;SDS011;1680;48.106;11.708;2023-03-01T06:45:14;21.10;;;15.82;;
1831;SDS011;1680;48.106;11.708;2023-03-01T06:47:42;21.40;;;16.25;;
1831;SDS011;1680;48.106;11.708;2023-03-01T06:50:10;21.30;;;17.08;;
1831;SDS011;1680;48.106;11.708;2023-03-01T06:52:37;21.85;;;15.82;;
1831;SDS011;1680;48.106;11.708;2023-03-01T06:55:05;21.70;;;16.33;;
1831;SDS011;1680;48.106;11.708;2023-03-01T06:57:35;23.20;;;17.13;;
1831;SDS011;1680;48.106;11.708;2023-03-01T07:00:02;23.30;;;15.70;;
1831;SDS011;1680;48.106;11.708;2023-03-01T07:02:30;22.13;;;15.63;;
1831;SDS011;1680;48.106;11.708;2023-03-01T07:04:57;22.88;;;15.90;;
1831;SDS011;1680;48.106;11.708;2023-03-01T07:07:24;25.95;;;17.20;;
1831;SDS011;1680;48.106;11.708;2023-03-01T07:09:51;19.65;;;15.20;;
1831;SDS011;1680;48.106;11.708;2023-03-01T07:12:19;20.08;;;15.25;;
1831;SDS011;1680;48.106;11.708;2023-03-01T07:14:48;20.45;;;15.18;;
1831;SDS011;1680;48.106;11.708;2023-03-01T07:17:15;20.38;;;15.75;;
1831;SDS011;1680;48.106;11.708;2023-03-01T07:19:42;17.92;;;15.00;;
1831;SDS011;1680;48.106;11.708;2023-03-01T07:22:10;22.55;;;16.33;;
1831;SDS011;1680;48.106;11.708;2023-03-01T07:24:37;21.20;;;16.42;;
1831;SDS011;1680;48.106;11.708;2023-03-01T07:27:04;24.20;;;16.67;;
1831;SDS011;1680;48.106;11.708;2023-03-01T07:29:31;20.73;;;15.70;;
1831;SDS011;1680;48.106;11.708;2023-03-01T07:32:03;21.55;;;16.77;;
1831;SDS011;1680;48.106;11.708;2023-03-01T07:34:30;20.10;;;15.77;;
1831;SDS011;1680;48.106;11.708;2023-03-01T07:36:58;21.00;;;15.68;;
1831;SDS011;1680;48.106;11.708;2023-03-01T07:39:25;20.10;;;15.27;;
1831;SDS011;1680;48.106;11.708;2023-03-01T07:41:52;22.13;;;16.73;;
1831;SDS011;1680;48.106;11.708;2023-03-01T07:44:19;19.98;;;14.98;;
1831;SDS011;1680;48.106;11.708;2023-03-01T07:46:47;22.05;;;14.82;;
1831;SDS011;1680;48.106;11.708;2023-03-01T07:49:15;19.38;;;15.20;;
1831;SDS011;1680;48.106;11.708;2023-03-01T07:51:43;24.00;;;16.20;;
1831;SDS011;1680;48.106;11.708;2023-03-01T07:54:10;21.00;;;15.43;;
1831;SDS011;1680;48.106;11.708;2023-03-01T07:56:37;21.65;;;16.45;;
1831;SDS011;1680;48.106;11.708;2023-03-01T07:59:05;19.67;;;15.20;;
1831;SDS011;1680;48.106;11.708;2023-03-01T08:01:32;19.27;;;15.18;;
1831;SDS011;1680;48.106;11.708;2023-03-01T08:04:00;19.50;;;15.60;;
1831;SDS011;1680;48.106;11.708;2023-03-01T08:06:29;22.38;;;15.23;;
1831;SDS011;1680;48.106;11.708;2023-03-01T08:08:56;24.50;;;16.90;;
1831;SDS011;1680;48.106;11.708;2023-03-01T08:11:23;23.77;;;16.95;;
1831;SDS011;1680;48.106;11.708;2023-03-01T08:13:53;22.50;;;17.13;;
1831;SDS011;1680;48.106;11.708;2023-03-01T08:16:21;26.17;;;17.52;;
1831;SDS011;1680;48.106;11.708;2023-03-01T08:18:48;21.67;;;15.75;;
1831;SDS011;1680;48.106;11.708;2023-03-01T08:21:16;22.35;;;15.98;;
1831;SDS011;1680;48.106;11.708;2023-03-01T08:23:46;22.73;;;16.50;;
1831;SDS011;1680;48.106;11.708;2023-03-01T08:26:14;23.85;;;16.13;;
1831;SDS011;1680;48.106;11.708;2023-03-01T08:28:43;22.52;;;15.60;;
1831;SDS011;1680;48.106;11.708;2023-03-01T08:31:15;21.70;;;17.23;;
1831;SDS011;1680;48.106;11.708;2023-03-01T08:33:44;22.23;;;15.70;;
1831;SDS011;1680;48.106;11.708;2023-03-01T08:36:15;23.40;;;15.80;;
1831;SDS011;1680;48.106;11.708;2023-03-01T08:38:43;20.30;;;15.55;;
1831;SDS011;1680;48.106;11.708;2023-03-01T08:41:12;23.10;;;16.88;;
1831;SDS011;1680;48.106;11.708;2023-03-01T08:43:40;22.15;;;15.85;;
1831;SDS011;1680;48.106;11.708;2023-03-01T08:46:07;20.33;;;15.68;;
1831;SDS011;1680;48.106;11.708;2023-03-01T08:48:34;20.65;;;15.98;;
1831;SDS011;1680;48.106;11.708;2023-03-01T08:51:08;22.52;;;16.80;;
1831;SDS011;1680;48.106;11.708;2023-03-01T08:53:36;23.45;;;16.88;;
1831;SDS011;1680;48.106;11.708;2023-03-01T08:56:04;22.25;;;17.35;;
1831;SDS011;1680;48.106;11.708;2023-03-01T08:58:33;24.38;;;16.35;;
1831;SDS011;1680;48.106;11.708;2023-03-01T09:01:00;21.95;;;17.65;;
1831;SDS011;1680;48.106;11.708;2023-03-01T09:03:28;23.83;;;15.98;;
1831;SDS011;1680;48.106;11.708;2023-03-01T09:05:59;21.55;;;16.92;;
1831;SDS011;1680;48.106;11.708;2023-03-01T09:08:27;23.55;;;16.73;;
1831;SDS011;1680;48.106;11.708;2023-03-01T09:10:54;21.10;;;16.25;;
1831;SDS011;1680;48.106;11.708;2023-03-01T09:13:22;20.55;;;15.88;;
1831;SDS011;1680;48.106;11.708;2023-03-01T09:15:51;22.92;;;17.25;;
1831;SDS011;1680;48.106;11.708;2023-03-01T09:18:18;22.83;;;17.27;;
1831;SDS011;1680;48.106;11.708;2023-03-01T09:20:45;23.70;;;17.40;;
1831;SDS011;1680;48.106;11.708;2023-03-01T09:23:13;23.00;;;16.50;;
1831;SDS011;1680;48.106;11.708;2023-03-01T09:25:40;21.13;;;17.10;;
1831;SDS011;1680;48.106;11.708;2023-03-01T09:28:07;21.88;;;17.42;;
1831;SDS011;1680;48.106;11.708;2023-03-01T09:30:36;24.60;;;17.95;;
1831;SDS011;1680;48.106;11.708;2023-03-01T09:33:04;25.25;;;17.40;;
1831;SDS011;1680;48.106;11.708;2023-03-01T09:35:32;23.35;;;17.10;;
1831;SDS011;1680;48.106;11.708;2023-03-01T09:37:59;23.52;;;18.02;;
1831;SDS011;1680;48.106;11.708;2023-03-01T09:40:26;24.92;;;17.23;;
1831;SDS011;1680;48.106;11.708;2023-03-01T09:42:56;23.83;;;17.80;;
1831;SDS011;1680;48.106;11.708;2023-03-01T09:45:29;23.13;;;18.13;;
1831;SDS011;1680;48.106;11.708;2023-03-01T09:48:01;22.80;;;16.83;;
1831;SDS011;1680;48.106;11.708;2023-03-01T09:50:33;21.75;;;16.50;;
1831;SDS011;1680;48.106;11.708;2023-03-01T09:53:05;25.30;;;17.63;;
1831;SDS011;1680;48.106;11.708;2023-03-01T09:55:37;23.50;;;16.02;;
1831;SDS011;1680;48.106;11.708;2023-03-01T09:58:20;21.42;;;16.65;;
1831;SDS011;1680;48.106;11.708;2023-03-01T10:00:58;21.70;;;15.48;;
1831;SDS011;1680;48.106;11.708;2023-03-01T10:03:31;19.10;;;15.10;;
1831;SDS011;1680;48.106;11.708;2023-03-01T10:06:06;21.02;;;15.98;;
1831;SDS011;1680;48.106;11.708;2023-03-01T10:08:40;20.73;;;15.65;;
1831;SDS011;1680;48.106;11.708;2023-03-01T10:11:17;21.90;;;15.88;;
1831;SDS011;1680;48.106;11.708;2023-03-01T10:13:50;15.80;;;12.27;;
1831;SDS011;1680;48.106;11.708;2023-03-01T10:16:26;24.00;;;16.40;;
1831;SDS011;1680;48.106;11.708;2023-03-01T10:19:00;20.90;;;15.48;;
1831;SDS011;1680;48.106;11.708;2023-03-01T10:21:32;22.33;;;15.73;;
1831;SDS011;1680;48.106;11.708;2023-03-01T10:24:10;20.40;;;15.17;;
1831;SDS011;1680;48.106;11.708;2023-03-01T10:26:43;23.00;;;15.73;;
1831;SDS011;1680;48.106;11.708;2023-03-01T10:29:15;20.50;;;15.30;;
1831;SDS011;1680;48.106;11.708;2023-03-01T10:31:43;18.58;;;14.50;;
1831;SDS011;1680;48.106;11.708;2023-03-01T10:34:14;20.33;;;15.63;;
1831;SDS011;1680;48.106;11.708;2023-03-01T10:36:44;18.83;;;14.93;;
1831;SDS011;1680;48.106;11.708;2023-03-01T10:39:16;20.77;;;15.77;;
1831;SDS011;1680;48.106;11.708;2023-03-01T10:41:52;21.63;;;15.73;;
1831;SDS011;1680;48.106;11.708;2023-03-01T10:44:41;20.63;;;16.25;;
1831;SDS011;1680;48.106;11.708;2023-03-01T10:47:14;20.40;;;15.38;;
1831;SDS011;1680;48.106;11.708;2023-03-01T10:49:52;23.55;;;15.75;;
1831;SDS011;1680;48.106;11.708;2023-03-01T10:52:22;18.35;;;15.65;;
1831;SDS011;1680;48.106;11.708;2023-03-01T10:54:52;20.05;;;16.15;;
1831;SDS011;1680;48.106;11.708;2023-03-01T10:57:29;21.45;;;16.13;;
1831;SDS011;1680;48.106;11.708;2023-03-01T11:00:09;22.00;;;16.27;;
1831;SDS011;1680;48.106;11.708;2023-03-01T11:02:43;20.00;;;15.93;;
1831;SDS011;1680;48.106;11.708;2023-03-01T11:05:16;20.55;;;17.17;;
1831;SDS011;1680;48.106;11.708;2023-03-01T11:07:51;20.70;;;16.40;;
1831;SDS011;1680;48.106;11.708;2023-03-01T11:10:21;21.50;;;16.83;;
1831;SDS011;1680;48.106;11.708;2023-03-01T11:12:50;23.95;;;18.35;;
1831;SDS011;1680;48.106;11.708;2023-03-01T11:15:22;21.95;;;17.27;;
1831;SDS011;1680;48.106;11.708;2023-03-01T11:17:52;21.60;;;18.23;;
1831;SDS011;1680;48.106;11.708;2023-03-01T11:20:24;23.92;;;18.45;;
1831;SDS011;1680;48.106;11.708;2023-03-01T11:22:55;24.88;;;17.92;;
1831;SDS011;1680;48.106;11.708;2023-03-01T11:25:25;22.95;;;18.05;;
1831;SDS011;1680;48.106;11.708;2023-03-01T11:27:56;24.63;;;17.53;;
1831;SDS011;1680;48.106;11.708;2023-03-01T11:30:27;24.10;;;17.90;;
1831;SDS011;1680;48.106;11.708;2023-03-01T11:33:04;23.77;;;17.15;;
1831;SDS011;1680;48.106;11.708;2023-03-01T11:35:41;20.75;;;16.85;;
1831;SDS011;1680;48.106;11.708;2023-03-01T11:40:59;21.37;;;17.40;;
1831;SDS011;1680;48.106;11.708;2023-03-01T11:43:33;21.90;;;17.50;;
1831;SDS011;1680;48.106;11.708;2023-03-01T11:46:17;23.60;;;18.40;;
1831;SDS011;1680;48.106;11.708;2023-03-01T11:49:13;21.17;;;17.65;;
1831;SDS011;1680;48.106;11.708;2023-03-01T11:52:00;25.85;;;18.63;;
1831;SDS011;1680;48.106;11.708;2023-03-01T11:54:41;23.67;;;17.17;;
1831;SDS011;1680;48.106;11.708;2023-03-01T11:57:20;21.85;;;17.52;;
1831;SDS011;1680;48.106;11.708;2023-03-01T12:00:11;21.60;;;16.97;;
1831;SDS011;1680;48.106;11.708;2023-03-01T12:03:09;23.63;;;18.50;;
1831;SDS011;1680;48.106;11.708;2023-03-01T12:05:59;20.27;;;15.80;;
1831;SDS011;1680;48.106;11.708;2023-03-01T12:08:44;22.83;;;17.30;;
1831;SDS011;1680;48.106;11.708;2023-03-01T12:11:23;23.00;;;18.00;;
1831;SDS011;1680;48.106;11.708;2023-03-01T12:14:06;26.07;;;19.07;;
1831;SDS011;1680;48.106;11.708;2023-03-01T12:16:54;23.83;;;18.07;;
1831;SDS011;1680;48.106;11.708;2023-03-01T12:19:34;24.00;;;18.40;;
1831;SDS011;1680;48.106;11.708;2023-03-01T12:22:17;24.57;;;19.00;;
1831;SDS011;1680;48.106;11.708;2023-03-01T12:24:58;20.43;;;16.50;;
1831;SDS011;1680;48.106;11.708;2023-03-01T12:27:45;23.23;;;17.90;;
1831;SDS011;1680;48.106;11.708;2023-03-01T12:30:34;24.93;;;17.90;;
1831;SDS011;1680;48.106;11.708;2023-03-01T12:33:13;24.30;;;17.30;;
1831;SDS011;1680;48.106;11.708;2023-03-01T12:36:05;22.08;;;17.65;;
1831;SDS011;1680;48.106;11.708;2023-03-01T12:45:47;21.17;;;17.58;;
1831;SDS011;1680;48.106;11.708;2023-03-01T12:48:26;23.23;;;17.80;;
1831;SDS011;1680;48.106;11.708;2023-03-01T12:51:04;22.33;;;17.43;;
1831;SDS011;1680;48.106;11.708;2023-03-01T12:53:36;23.40;;;18.00;;
1831;SDS011;1680;48.106;11.708;2023-03-01T12:56:06;23.23;;;17.90;;
1831;SDS011;1680;48.106;11.708;2023-03-01T12:58:39;23.90;;;17.87;;
1831;SDS011;1680;48.106;11.708;2023-03-01T13:01:17;23.97;;;17.13;;
1831;SDS011;1680;48.106;11.708;2023-03-01T13:03:55;23.23;;;18.13;;
1831;SDS011;1680;48.106;11.708;2023-03-01T13:06:38;27.40;;;18.80;;
1831;SDS011;1680;48.106;11.708;2023-03-01T13:09:14;26.03;;;19.43;;
1831;SDS011;1680;48.106;11.708;2023-03-01T13:11:49;21.90;;;17.50;;
1831;SDS011;1680;48.106;11.708;2023-03-01T13:14:35;23.57;;;17.63;;
1831;SDS011;1680;48.106;11.708;2023-03-01T13:17:33;21.87;;;17.53;;
1831;SDS011;1680;48.106;11.708;2023-03-01T13:20:12;24.60;;;18.73;;
1831;SDS011;1680;48.106;11.708;2023-03-01T13:22:41;24.03;;;17.97;;
1831;SDS011;1680;48.106;11.708;2023-03-01T13:25:12;22.40;;;17.50;;
1831;SDS011;1680;48.106;11.708;2023-03-01T13:27:42;24.53;;;19.13;;
1831;SDS011;1680;48.106;11.708;2023-03-01T13:36:11;23.73;;;19.20;;
1831;SDS011;1680;48.106;11.708;2023-03-01T13:39:01;25.00;;;19.10;;
1831;SDS011;1680;48.106;11.708;2023-03-01T13:41:49;24.60;;;17.47;;
1831;SDS011;1680;48.106;11.708;2023-03-01T13:44:20;24.40;;;18.50;;
1831;SDS011;1680;48.106;11.708;2023-03-01T13:46:53;24.87;;;18.23;;
1831;SDS011;1680;48.106;11.708;2023-03-01T13:49:27;23.47;;;18.50;;
1831;SDS011;1680;48.106;11.708;2023-03-01T13:52:00;23.27;;;18.47;;
1831;SDS011;1680;48.106;11.708;2023-03-01T13:54:29;24.37;;;18.50;;
1831;SDS011;1680;48.106;11.708;2023-03-01T13:56:59;22.40;;;18.47;;
1831;SDS011;1680;48.106;11.708;2023-03-01T13:59:28;24.13;;;18.00;;
1831;SDS011;1680;48.106;11.708;2023-03-01T14:01:56;22.83;;;17.30;;
1831;SDS011;1680;48.106;11.708;2023-03-01T14:04:26;24.97;;;18.00;;
1831;SDS011;1680;48.106;11.708;2023-03-01T14:07:08;21.00;;;16.73;;
1831;SDS011;1680;48.106;11.708;2023-03-01T14:09:37;26.00;;;18.70;;
1831;SDS011;1680;48.106;11.708;2023-03-01T14:12:14;24.80;;;17.20;;
1831;SDS011;1680;48.106;11.708;2023-03-01T14:15:06;24.07;;;17.73;;
1831;SDS011;1680;48.106;11.708;2023-03-01T14:17:47;24.33;;;17.40;;
1831;SDS011;1680;48.106;11.708;2023-03-01T14:20:21;26.23;;;17.97;;
1831;SDS011;1680;48.106;11.708;2023-03-01T14:22:52;22.67;;;17.57;;
1831;SDS011;1680;48.106;11.708;2023-03-01T14:25:31;21.60;;;17.33;;
1831;SDS011;1680;48.106;11.708;2023-03-01T14:28:01;24.40;;;16.97;;
1831;SDS011;1680;48.106;11.708;2023-03-01T14:30:33;24.23;;;18.10;;
1831;SDS011;1680;48.106;11.708;2023-03-01T14:33:04;22.00;;;16.93;;
1831;SDS011;1680;48.106;11.708;2023-03-01T14:35:51;22.20;;;16.20;;
1831;SDS011;1680;48.106;11.708;2023-03-01T14:38:20;22.77;;;16.20;;
1831;SDS011;1680;48.106;11.708;2023-03-01T14:40:48;22.80;;;16.77;;
1831;SDS011;1680;48.106;11.708;2023-03-01T14:43:21;22.67;;;17.57;;
1831;SDS011;1680;48.106;11.708;2023-03-01T14:45:50;22.60;;;16.93;;
1831;SDS011;1680;48.106;11.708;2023-03-01T14:48:18;22.10;;;17.40;;
1831;SDS011;1680;48.106;11.708;2023-03-01T14:50:47;23.87;;;17.10;;
1831;SDS011;1680;48.106;11.708;2023-03-01T14:53:17;20.67;;;16.73;;
1831;SDS011;1680;48.106;11.708;2023-03-01T14:55:47;23.10;;;16.50;;
1831;SDS011;1680;48.106;11.708;2023-03-01T14:58:18;23.30;;;16.57;;
1831;SDS011;1680;48.106;11.708;2023-03-01T15:00:49;23.37;;;17.23;;
1831;SDS011;1680;48.106;11.708;2023-03-01T15:03:20;24.13;;;16.70;;
1831;SDS011;1680;48.106;11.708;2023-03-01T15:05:54;22.47;;;16.93;;
1831;SDS011;1680;48.106;11.708;2023-03-01T15:08:22;22.20;;;16.87;;
1831;SDS011;1680;48.106;11.708;2023-03-01T15:10:58;21.77;;;16.90;;
1831;SDS011;1680;48.106;11.708;2023-03-01T15:13:29;23.70;;;16.73;;